Observation data for Goodlett on 11/19/2019      Previous  Date       Current Mesonet Observations  Soil Data  Daily Summary Page  Observations in Plain Language
KGDS 190600Z 28008KT 11/00 A2991 RMK A01 T01090003  RH  048%=      5-min Rain = 0
KGDS 190605Z 29007KT 11/00 A2991 RMK A01 T01120002  RH  047%=      5-min Rain = 0
KGDS 190610Z 29006KT 12/00 A2991 RMK A01 T01150001  RH  046%=      5-min Rain = 0
KGDS 190615Z 31005KT 12/00 A2991 RMK A01 T01160001  RH  046%=      5-min Rain = 0
KGDS 190620Z 31006KT 12/00 A2991 RMK A01 T01190001  RH  045%=      5-min Rain = 0
KGDS 190625Z 31006KT 12/00 A2991 RMK A01 T01190002  RH  045%=      5-min Rain = 0
KGDS 190630Z 28005KT 12/00 A2991 RMK A01 T01180002  RH  045%=      5-min Rain = 0
KGDS 190635Z 22003KT 11/00 A2991 RMK A01 T01070002  RH  049%=      5-min Rain = 0
KGDS 190640Z 22003KT 09/00 A2991 RMK A01 T00930000  RH  053%=      5-min Rain = 0
KGDS 190645Z 21004KT 09/00 A2991 RMK A01 T00910001  RH  054%=      5-min Rain = 0
KGDS 190650Z 21003KT 09/00 A2991 RMK A01 T00910001  RH  054%=      5-min Rain = 0
KGDS 190655Z 21003KT 09/00 A2991 RMK A01 T009100-0  RH  053%=      5-min Rain = 0
KGDS 190700Z 21007KT 07/M00 A2991 RMK A01 T00721002  RH  060%=      5-min Rain = 0
KGDS 190705Z 22006KT 07/M00 A2991 RMK A01 T00691001  RH  062%=      5-min Rain = 0
KGDS 190710Z 23006KT 07/M00 A2991 RMK A01 T00671001  RH  062%=      5-min Rain = 0
KGDS 190715Z 23007KT 07/M00 A2991 RMK A01 T00661002  RH  063%=      5-min Rain = 0
KGDS 190720Z 24007KT 07/M00 A2991 RMK A01 T00671002  RH  062%=      5-min Rain = 0
KGDS 190725Z 24007KT 07/M00 A2992 RMK A01 T00691002  RH  061%=      5-min Rain = 0
KGDS 190730Z 25007KT 07/M00 A2992 RMK A01 T00681002  RH  061%=      5-min Rain = 0
KGDS 190735Z 25007KT 07/M00 A2992 RMK A01 T00741001  RH  060%=      5-min Rain = 0
KGDS 190740Z 25007KT 08/00 A2993 RMK A01 T008000-0  RH  057%=      5-min Rain = 0
KGDS 190745Z 25007KT 08/M00 A2993 RMK A01 T00821001  RH  056%=      5-min Rain = 0
KGDS 190750Z 25006KT 08/M00 A2992 RMK A01 T00831001  RH  056%=      5-min Rain = 0
KGDS 190755Z 25006KT 09/M00 A2992 RMK A01 T00851002  RH  055%=      5-min Rain = 0
KGDS 190800Z 27007KT 08/M00 A2992 RMK A01 T00841002  RH  055%=      5-min Rain = 0
KGDS 190805Z 28007KT 09/M00 A2992 RMK A01 T00861003  RH  054%=      5-min Rain = 0
KGDS 190810Z 27008KT 09/M00 A2993 RMK A01 T00881003  RH  053%=      5-min Rain = 0
KGDS 190815Z 25006KT 09/M00 A2993 RMK A01 T00871003  RH  054%=      5-min Rain = 0
KGDS 190820Z 26006KT 08/M00 A2993 RMK A01 T00811003  RH  056%=      5-min Rain = 0
KGDS 190825Z 27005KT 08/M00 A2993 RMK A01 T00811003  RH  056%=      5-min Rain = 0
KGDS 190830Z 28006KT 08/M00 A2993 RMK A01 T00791004  RH  057%=      5-min Rain = 0
KGDS 190835Z 29009KT 08/M00 A2993 RMK A01 T00781003  RH  057%=      5-min Rain = 0
KGDS 190840Z 28006KT 08/M00 A2993 RMK A01 T00821002  RH  056%=      5-min Rain = 0
KGDS 190845Z 29005KT 08/M00 A2993 RMK A01 T00831001  RH  056%=      5-min Rain = 0
KGDS 190850Z 30006KT 09/00 A2992 RMK A01 T008800-0  RH  055%=      5-min Rain = 0
KGDS 190855Z 30006KT 09/00 A2992 RMK A01 T00880001  RH  055%=      5-min Rain = 0
KGDS 190900Z 31007KT 09/00 A2992 RMK A01 T00870002  RH  056%=      5-min Rain = 0
KGDS 190905Z 31008KT 09/00 A2992 RMK A01 T00860001  RH  056%=      5-min Rain = 0
KGDS 190910Z 32008KT 08/00 A2992 RMK A01 T00820001  RH  057%=      5-min Rain = 0
KGDS 190915Z 32008KT 08/M00 A2992 RMK A01 T00781001  RH  058%=      5-min Rain = 0
KGDS 190920Z 32008KT 08/M00 A2991 RMK A01 T00781001  RH  058%=      5-min Rain = 0
KGDS 190925Z 33008KT 08/M00 A2991 RMK A01 T00781001  RH  058%=      5-min Rain = 0
KGDS 190930Z 32009KT 08/M00 A2992 RMK A01 T00781001  RH  058%=      5-min Rain = 0
KGDS 190935Z 31010KT 08/00 A2992 RMK A01 T00830001  RH  057%=      5-min Rain = 0
KGDS 190940Z 31009KT 08/00 A2992 RMK A01 T00840002  RH  057%=      5-min Rain = 0
KGDS 190945Z 30006KT 08/00 A2993 RMK A01 T00820001  RH  057%=      5-min Rain = 0
KGDS 190950Z 27003KT 08/00 A2993 RMK A01 T00800001  RH  058%=      5-min Rain = 0
KGDS 190955Z 28006KT 08/00 A2993 RMK A01 T00820001  RH  057%=      5-min Rain = 0
KGDS 191000Z 30008KT 08/00 A2993 RMK A01 T00820002  RH  058%=      5-min Rain = 0
KGDS 191005Z 30006KT 08/00 A2993 RMK A01 T00810002  RH  058%=      5-min Rain = 0
KGDS 191010Z 31009KT 08/00 A2993 RMK A01 T00820004  RH  059%=      5-min Rain = 0
KGDS 191015Z 31010KT 09/01 A2993 RMK A01 T00850006  RH  058%=      5-min Rain = 0
KGDS 191020Z 31010KT 09/01 A2993 RMK A01 T00880008  RH  058%=      5-min Rain = 0
KGDS 191025Z 31010KT 09/01 A2993 RMK A01 T00870007  RH  058%=      5-min Rain = 0
KGDS 191030Z 30007KT 08/01 A2993 RMK A01 T00820006  RH  059%=      5-min Rain = 0
KGDS 191035Z 28007KT 08/00 A2993 RMK A01 T00760004  RH  061%=      5-min Rain = 0
KGDS 191040Z 29006KT 08/00 A2993 RMK A01 T00750004  RH  062%=      5-min Rain = 0
KGDS 191045Z 28005KT 07/01 A2994 RMK A01 T00740005  RH  062%=      5-min Rain = 0
KGDS 191050Z 29005KT 07/01 A2993 RMK A01 T00720005  RH  063%=      5-min Rain = 0
KGDS 191055Z 29006KT 07/01 A2993 RMK A01 T00730006  RH  063%=      5-min Rain = 0
KGDS 191100Z 26003KT 07/01 A2993 RMK A01 T00700005  RH  064%=      5-min Rain = 0
KGDS 191105Z 27004KT 06/00 A2993 RMK A01 T00630001  RH  065%=      5-min Rain = 0
KGDS 191110Z 26004KT 06/M00 A2994 RMK A01 T00561001  RH  068%=      5-min Rain = 0
KGDS 191115Z 25003KT 05/M00 A2994 RMK A01 T00481004  RH  070%=      5-min Rain = 0
KGDS 191120Z 24004KT 05/M00 A2994 RMK A01 T00451004  RH  071%=      5-min Rain = 0
KGDS 191125Z 26004KT 04/M01 A2994 RMK A01 T00421005  RH  072%=      5-min Rain = 0
KGDS 191130Z 28004KT 04/M00 A2994 RMK A01 T00421004  RH  072%=      5-min Rain = 0
KGDS 191135Z 26004KT 04/M00 A2994 RMK A01 T00431004  RH  072%=      5-min Rain = 0
KGDS 191140Z 25004KT 04/M00 A2994 RMK A01 T00431004  RH  072%=      5-min Rain = 0
KGDS 191145Z 25005KT 04/M01 A2994 RMK A01 T00411006  RH  072%=      5-min Rain = 0
KGDS 191150Z 26004KT 04/M01 A2994 RMK A01 T00401006  RH  073%=      5-min Rain = 0
KGDS 191155Z 27005KT 04/M01 A2993 RMK A01 T00421005  RH  072%=      5-min Rain = 0
KGDS 191200Z 28006KT 05/M00 A2994 RMK A01 T00461002  RH  072%=      5-min Rain = 0
KGDS 191205Z 23005KT 04/M00 A2994 RMK A01 T00431004  RH  072%=      5-min Rain = 0
KGDS 191210Z 24005KT 04/M01 A2994 RMK A01 T00381007  RH  074%=      5-min Rain = 0
KGDS 191215Z 24005KT 04/M01 A2994 RMK A01 T00371007  RH  073%=      5-min Rain = 0
KGDS 191220Z 24005KT 04/M01 A2994 RMK A01 T00351007  RH  075%=      5-min Rain = 0
KGDS 191225Z 22007KT 03/M01 A2994 RMK A01 T00341008  RH  075%=      5-min Rain = 0
KGDS 191230Z 24006KT 03/M01 A2994 RMK A01 T00321008  RH  076%=      5-min Rain = 0
KGDS 191235Z 25005KT 03/M01 A2994 RMK A01 T00341008  RH  075%=      5-min Rain = 0
KGDS 191240Z 25005KT 03/M01 A2994 RMK A01 T00341008  RH  075%=      5-min Rain = 0
KGDS 191245Z 24006KT 03/M01 A2995 RMK A01 T00331008  RH  075%=      5-min Rain = 0
KGDS 191250Z 25005KT 03/M01 A2994 RMK A01 T00311009  RH  076%=      5-min Rain = 0
KGDS 191255Z 26006KT 03/M01 A2994 RMK A01 T00341007  RH  075%=      5-min Rain = 0
KGDS 191300Z 26006KT 04/M01 A2994 RMK A01 T00371007  RH  074%=      5-min Rain = 0
KGDS 191305Z 26005KT 04/M01 A2994 RMK A01 T00371008  RH  073%=      5-min Rain = 0
KGDS 191310Z 27004KT 04/M01 A2994 RMK A01 T00371007  RH  074%=      5-min Rain = 0
KGDS 191315Z 28003KT 04/M01 A2994 RMK A01 T00381007  RH  073%=      5-min Rain = 0
KGDS 191320Z 28002KT 04/M01 A2994 RMK A01 T00391007  RH  073%=      5-min Rain = 0
KGDS 191325Z 29002KT 04/M01 A2994 RMK A01 T00421006  RH  072%=      5-min Rain = 0
KGDS 191330Z 30001KT 05/M01 A2994 RMK A01 T00451006  RH  070%=      5-min Rain = 0
KGDS 191335Z 01002KT 05/M01 A2994 RMK A01 T00471005  RH  070%=      5-min Rain = 0
KGDS 191340Z 01002KT 05/M01 A2994 RMK A01 T00511005  RH  068%=      5-min Rain = 0
KGDS 191345Z 01002KT 05/M01 A2993 RMK A01 T00511006  RH  067%=      5-min Rain = 0
KGDS 191350Z 01003KT 05/M00 A2993 RMK A01 T00541002  RH  068%=      5-min Rain = 0
KGDS 191355Z 02003KT 06/00 A2993 RMK A01 T005500-0  RH  069%=      5-min Rain = 0
KGDS 191400Z 02003KT 06/00 A2993 RMK A01 T00550001  RH  069%=      5-min Rain = 0
KGDS 191405Z 02003KT 06/00 A2993 RMK A01 T00580003  RH  068%=      5-min Rain = 0
KGDS 191410Z 02004KT 06/00 A2993 RMK A01 T00610004  RH  067%=      5-min Rain = 0
KGDS 191415Z 03004KT 07/01 A2993 RMK A01 T00660006  RH  067%=      5-min Rain = 0
KGDS 191420Z 03004KT 07/01 A2993 RMK A01 T00730010  RH  065%=      5-min Rain = 0
KGDS 191425Z 04004KT 08/01 A2993 RMK A01 T00800012  RH  063%=      5-min Rain = 0
KGDS 191430Z 04004KT 09/01 A2993 RMK A01 T00860013  RH  061%=      5-min Rain = 0
KGDS 191435Z 05004KT 09/01 A2993 RMK A01 T00900014  RH  060%=      5-min Rain = 0
KGDS 191440Z 05003KT 09/02 A2993 RMK A01 T00940015  RH  059%=      5-min Rain = 0
KGDS 191445Z 04004KT 10/02 A2993 RMK A01 T00950016  RH  059%=      5-min Rain = 0
KGDS 191450Z 05004KT 10/02 A2993 RMK A01 T01010020  RH  058%=      5-min Rain = 0
KGDS 191455Z 05005KT 11/02 A2993 RMK A01 T01070022  RH  057%=      5-min Rain = 0
KGDS 191500Z 05006KT 11/02 A2992 RMK A01 T01110024  RH  056%=      5-min Rain = 0
KGDS 191505Z 05006KT 12/03 A2992 RMK A01 T01160027  RH  055%=      5-min Rain = 0
KGDS 191510Z 05006KT 12/03 A2992 RMK A01 T01190028  RH  055%=      5-min Rain = 0
KGDS 191515Z 06005KT 12/03 A2992 RMK A01 T01240030  RH  053%=      5-min Rain = 0
KGDS 191520Z 07005KT 13/03 A2993 RMK A01 T01300030  RH  051%=      5-min Rain = 0
KGDS 191525Z 07006KT 13/03 A2993 RMK A01 T01340028  RH  049%=      5-min Rain = 0
KGDS 191530Z 07006KT 14/03 A2993 RMK A01 T01380030  RH  049%=      5-min Rain = 0
KGDS 191535Z 08005KT 14/03 A2993 RMK A01 T01420031  RH  048%=      5-min Rain = 0
KGDS 191540Z 08005KT 15/03 A2993 RMK A01 T01460031  RH  047%=      5-min Rain = 0
KGDS 191545Z 09005KT 15/03 A2993 RMK A01 T01480030  RH  046%=      5-min Rain = 0
KGDS 191550Z 10005KT 15/03 A2993 RMK A01 T01510031  RH  045%=      5-min Rain = 0
KGDS 191555Z 10006KT 15/03 A2993 RMK A01 T01500029  RH  045%=      5-min Rain = 0
KGDS 191600Z 11005KT 15/03 A2994 RMK A01 T01510030  RH  045%=      5-min Rain = 0
KGDS 191605Z 12005KT 16/03 A2994 RMK A01 T01580031  RH  043%=      5-min Rain = 0
KGDS 191610Z 13003KT 16/03 A2994 RMK A01 T01620032  RH  043%=      5-min Rain = 0
KGDS 191615Z 13003KT 17/03 A2994 RMK A01 T01680032  RH  041%=      5-min Rain = 0
KGDS 191620Z 16002KT 17/03 A2994 RMK A01 T01710033  RH  040%=      5-min Rain = 0
KGDS 191625Z 18002KT 18/03 A2994 RMK A01 T01750032  RH  039%=      5-min Rain = 0
KGDS 191630Z 19002KT 18/03 A2994 RMK A01 T01770033  RH  039%=      5-min Rain = 0
KGDS 191635Z 21002KT 18/03 A2994 RMK A01 T01780033  RH  039%=      5-min Rain = 0
KGDS 191640Z 20002KT 18/03 A2994 RMK A01 T01840034  RH  038%=      5-min Rain = 0
KGDS 191645Z 22001KT 18/03 A2994 RMK A01 T01840033  RH  037%=      5-min Rain = 0
KGDS 191650Z 24003KT 19/04 A2994 RMK A01 T01880035  RH  037%=      5-min Rain = 0
KGDS 191655Z 20004KT 19/04 A2994 RMK A01 T01940035  RH  036%=      5-min Rain = 0
KGDS 191700Z 19005KT 20/04 A2994 RMK A01 T01960035  RH  035%=      5-min Rain = 0
KGDS 191705Z 20004KT 20/04 A2994 RMK A01 T02010036  RH  034%=      5-min Rain = 0
KGDS 191710Z 19006KT 21/04 A2993 RMK A01 T02060036  RH  033%=      5-min Rain = 0
KGDS 191715Z 16007KT 21/03 A2993 RMK A01 T02120033  RH  031%=      5-min Rain = 0
KGDS 191720Z 15010KT 21/03 A2993 RMK A01 T02140029  RH  030%=      5-min Rain = 0
KGDS 191725Z 16009KT 21/03 A2993 RMK A01 T02120027  RH  030%=      5-min Rain = 0
KGDS 191730Z 15009KT 21/03 A2993 RMK A01 T02130029  RH  030%=      5-min Rain = 0
KGDS 191735Z 15009KT 22/03 A2992 RMK A01 T02150031  RH  030%=      5-min Rain = 0
KGDS 191740Z 15010KT 22/04 A2992 RMK A01 T02170035  RH  031%=      5-min Rain = 0
KGDS 191745Z 16010G16KT 22/04 A2991 RMK A01 T02200039  RH  031%=      5-min Rain = 0
KGDS 191750Z 16010KT 22/04 A2991 RMK A01 T02210040  RH  031%=      5-min Rain = 0
KGDS 191755Z 17011KT 22/03 A2991 RMK A01 T02230034  RH  029%=      5-min Rain = 0
KGDS 191800Z 16011KT 22/03 A299 RMK A01 T02230033  RH  029%=      5-min Rain = 0
KGDS 191805Z 16013KT 22/03 A299 RMK A01 T02230032  RH  029%=      5-min Rain = 0
KGDS 191810Z 16012G17KT 22/03 A2989 RMK A01 T02220031  RH  029%=      5-min Rain = 0
KGDS 191815Z 15013KT 23/03 A2989 RMK A01 T02270029  RH  028%=      5-min Rain = 0
KGDS 191820Z 16013G18KT 23/03 A2989 RMK A01 T02300028  RH  027%=      5-min Rain = 0
KGDS 191825Z 16014KT 23/03 A2988 RMK A01 T02300027  RH  027%=      5-min Rain = 0
KGDS 191830Z 15014KT 23/03 A2988 RMK A01 T02320029  RH  027%=      5-min Rain = 0
KGDS 191835Z 15015KT 24/03 A2987 RMK A01 T02360029  RH  026%=      5-min Rain = 0
KGDS 191840Z 15015KT 24/03 A2987 RMK A01 T02350028  RH  026%=      5-min Rain = 0
KGDS 191845Z 16014KT 24/03 A2987 RMK A01 T02360029  RH  026%=      5-min Rain = 0
KGDS 191850Z 16013KT 24/03 A2987 RMK A01 T02370031  RH  026%=      5-min Rain = 0
KGDS 191855Z 16014KT 23/03 A2986 RMK A01 T02340032  RH  027%=      5-min Rain = 0
KGDS 191900Z 16013KT 24/04 A2986 RMK A01 T02410035  RH  027%=      5-min Rain = 0
KGDS 191905Z 15014G19KT 24/04 A2986 RMK A01 T02410036  RH  027%=      5-min Rain = 0
KGDS 191910Z 16016KT 24/04 A2985 RMK A01 T02410036  RH  027%=      5-min Rain = 0
KGDS 191915Z 16015G20KT 24/04 A2985 RMK A01 T02440037  RH  027%=      5-min Rain = 0
KGDS 191920Z 17016KT 24/04 A2985 RMK A01 T02390037  RH  027%=      5-min Rain = 0
KGDS 191925Z 17016KT 24/04 A2985 RMK A01 T02420039  RH  027%=      5-min Rain = 0
KGDS 191930Z 16015G22KT 24/04 A2984 RMK A01 T02440042  RH  028%=      5-min Rain = 0
KGDS 191935Z 17017G22KT 25/04 A2984 RMK A01 T02480041  RH  027%=      5-min Rain = 0
KGDS 191940Z 16016G21KT 25/04 A2983 RMK A01 T02500040  RH  026%=      5-min Rain = 0
KGDS 191945Z 18017G22KT 25/04 A2983 RMK A01 T02510040  RH  026%=      5-min Rain = 0
KGDS 191950Z 16016KT 25/04 A2982 RMK A01 T02510041  RH  026%=      5-min Rain = 0
KGDS 191955Z 17015G20KT 25/04 A2982 RMK A01 T02530043  RH  026%=      5-min Rain = 0
KGDS 192000Z 16017G22KT 25/04 A2982 RMK A01 T02540042  RH  026%=      5-min Rain = 0
KGDS 192005Z 16018G23KT 25/04 A2981 RMK A01 T02540042  RH  026%=      5-min Rain = 0
KGDS 192010Z 16017KT 26/04 A2981 RMK A01 T02550043  RH  026%=      5-min Rain = 0
KGDS 192015Z 17018G23KT 26/04 A2981 RMK A01 T02580043  RH  026%=      5-min Rain = 0
KGDS 192020Z 17017G25KT 26/04 A2981 RMK A01 T02560042  RH  026%=      5-min Rain = 0
KGDS 192025Z 17019G25KT 26/04 A298 RMK A01 T02600039  RH  024%=      5-min Rain = 0
KGDS 192030Z 17022G27KT 26/04 A298 RMK A01 T02580035  RH  024%=      5-min Rain = 0
KGDS 192035Z 18019G24KT 26/04 A298 RMK A01 T02590037  RH  024%=      5-min Rain = 0
KGDS 192040Z 18020KT 26/04 A298 RMK A01 T02600037  RH  024%=      5-min Rain = 0
KGDS 192045Z 18020G26KT 26/04 A298 RMK A01 T02590038  RH  025%=      5-min Rain = 0
KGDS 192050Z 17018G23KT 26/04 A298 RMK A01 T02580043  RH  026%=      5-min Rain = 0
KGDS 192055Z 16018G24KT 26/05 A298 RMK A01 T02570048  RH  027%=      5-min Rain = 0
KGDS 192100Z 16019G24KT 26/05 A298 RMK A01 T02560050  RH  027%=      5-min Rain = 0
KGDS 192105Z 16018KT 26/05 A298 RMK A01 T02550051  RH  027%=      5-min Rain = 0
KGDS 192110Z 16016KT 26/05 A2979 RMK A01 T02550052  RH  028%=      5-min Rain = 0
KGDS 192115Z 16020KT 26/05 A2979 RMK A01 T02570048  RH  027%=      5-min Rain = 0
KGDS 192120Z 16019G25KT 26/05 A2979 RMK A01 T02560047  RH  027%=      5-min Rain = 0
KGDS 192125Z 17017G23KT 26/05 A2979 RMK A01 T02560045  RH  026%=      5-min Rain = 0
KGDS 192130Z 16017G22KT 26/04 A2979 RMK A01 T02590042  RH  025%=      5-min Rain = 0
KGDS 192135Z 17018KT 26/04 A2979 RMK A01 T02590041  RH  025%=      5-min Rain = 0
KGDS 192140Z 17016G22KT 26/04 A2979 RMK A01 T02590042  RH  025%=      5-min Rain = 0
KGDS 192145Z 17020G26KT 26/04 A2979 RMK A01 T02570043  RH  026%=      5-min Rain = 0
KGDS 192150Z 16019KT 25/04 A2978 RMK A01 T02540043  RH  026%=      5-min Rain = 0
KGDS 192155Z 16019G24KT 25/04 A2978 RMK A01 T02530044  RH  026%=      5-min Rain = 0
KGDS 192200Z 16017G23KT 25/05 A2978 RMK A01 T02530045  RH  027%=      5-min Rain = 0
KGDS 192205Z 16020G25KT 25/05 A2978 RMK A01 T02520046  RH  027%=      5-min Rain = 0
KGDS 192210Z 16017G22KT 25/05 A2978 RMK A01 T02520047  RH  027%=      5-min Rain = 0
KGDS 192215Z 16019G24KT 25/05 A2979 RMK A01 T02500049  RH  028%=      5-min Rain = 0
KGDS 192220Z 16018KT 25/05 A2979 RMK A01 T02480051  RH  029%=      5-min Rain = 0
KGDS 192225Z 17014KT 25/05 A2979 RMK A01 T02480053  RH  029%=      5-min Rain = 0
KGDS 192230Z 16015KT 25/06 A2979 RMK A01 T02470055  RH  030%=      5-min Rain = 0
KGDS 192235Z 16016G21KT 25/06 A2978 RMK A01 T02450056  RH  030%=      5-min Rain = 0
KGDS 192240Z 17017KT 24/06 A2978 RMK A01 T02430058  RH  031%=      5-min Rain = 0
KGDS 192245Z 16016KT 24/06 A2978 RMK A01 T02410059  RH  032%=      5-min Rain = 0
KGDS 192250Z 17016KT 24/06 A2978 RMK A01 T02410059  RH  032%=      5-min Rain = 0
KGDS 192255Z 16013KT 24/06 A2978 RMK A01 T02390058  RH  032%=      5-min Rain = 0
KGDS 192300Z 16012KT 24/06 A2978 RMK A01 T02360058  RH  032%=      5-min Rain = 0
KGDS 192305Z 15013KT 23/06 A2978 RMK A01 T02340056  RH  032%=      5-min Rain = 0
KGDS 192310Z 15011KT 23/06 A2978 RMK A01 T02310055  RH  033%=      5-min Rain = 0
KGDS 192315Z 15011KT 23/06 A2979 RMK A01 T02280055  RH  033%=      5-min Rain = 0
KGDS 192320Z 15011KT 23/05 A2978 RMK A01 T02260054  RH  034%=      5-min Rain = 0
KGDS 192325Z 15010KT 22/05 A2978 RMK A01 T02210054  RH  034%=      5-min Rain = 0
KGDS 192330Z 16009KT 22/05 A2978 RMK A01 T02170053  RH  035%=      5-min Rain = 0
KGDS 192335Z 15009KT 21/05 A2978 RMK A01 T02130052  RH  036%=      5-min Rain = 0
KGDS 192340Z 15009KT 21/05 A2978 RMK A01 T02090052  RH  036%=      5-min Rain = 0
KGDS 192345Z 15009KT 21/05 A2978 RMK A01 T02050051  RH  037%=      5-min Rain = 0
KGDS 192350Z 15009KT 20/05 A2978 RMK A01 T02010050  RH  038%=      5-min Rain = 0
KGDS 192355Z 14009KT 20/05 A2978 RMK A01 T01980050  RH  039%=      5-min Rain = 0
KGDS 200000Z 14009KT 20/05 A2978 RMK A01 T01950049  RH  039%=      5-min Rain = 0
KGDS 200005Z 13008KT 19/05 A2978 RMK A01 T01920047  RH  039%=      5-min Rain = 0
KGDS 200010Z 13008KT 19/05 A2978 RMK A01 T01880048  RH  040%=      5-min Rain = 0
KGDS 200015Z 13009KT 19/05 A2978 RMK A01 T01860047  RH  041%=      5-min Rain = 0
KGDS 200020Z 12008KT 18/05 A2978 RMK A01 T01840046  RH  041%=      5-min Rain = 0
KGDS 200025Z 12008KT 18/04 A2978 RMK A01 T01800044  RH  042%=      5-min Rain = 0
KGDS 200030Z 13009KT 18/04 A2978 RMK A01 T01750043  RH  042%=      5-min Rain = 0
KGDS 200035Z 13008KT 17/04 A2978 RMK A01 T01740043  RH  043%=      5-min Rain = 0
KGDS 200040Z 13008KT 17/04 A2979 RMK A01 T01720042  RH  043%=      5-min Rain = 0
KGDS 200045Z 13008KT 17/04 A2979 RMK A01 T01680040  RH  043%=      5-min Rain = 0
KGDS 200050Z 13008KT 16/04 A2979 RMK A01 T01640039  RH  044%=      5-min Rain = 0
KGDS 200055Z 13008KT 16/04 A2979 RMK A01 T01630038  RH  044%=      5-min Rain = 0
KGDS 200100Z 14009KT 17/04 A2978 RMK A01 T01650037  RH  043%=      5-min Rain = 0
KGDS 200105Z 14009KT 17/04 A2978 RMK A01 T01690037  RH  042%=      5-min Rain = 0
KGDS 200110Z 15009KT 17/04 A2978 RMK A01 T01700036  RH  042%=      5-min Rain = 0
KGDS 200115Z 15009KT 17/04 A2978 RMK A01 T01690035  RH  042%=      5-min Rain = 0
KGDS 200120Z 15008KT 17/03 A2979 RMK A01 T01680034  RH  041%=      5-min Rain = 0
KGDS 200125Z 15008KT 17/03 A2979 RMK A01 T01680033  RH  041%=      5-min Rain = 0
KGDS 200130Z 15009KT 17/03 A2979 RMK A01 T01690032  RH  041%=      5-min Rain = 0
KGDS 200135Z 15008KT 17/03 A2979 RMK A01 T01690032  RH  041%=      5-min Rain = 0
KGDS 200140Z 15008KT 17/03 A2979 RMK A01 T01690031  RH  040%=      5-min Rain = 0
KGDS 200145Z 14008KT 17/03 A2979 RMK A01 T01690031  RH  040%=      5-min Rain = 0
KGDS 200150Z 14009KT 17/03 A2979 RMK A01 T01680031  RH  040%=      5-min Rain = 0
KGDS 200155Z 14009KT 17/03 A2979 RMK A01 T01680031  RH  041%=      5-min Rain = 0
KGDS 200200Z 13008KT 16/03 A2978 RMK A01 T01640030  RH  041%=      5-min Rain = 0
KGDS 200205Z 14008KT 16/03 A2978 RMK A01 T01620030  RH  042%=      5-min Rain = 0
KGDS 200210Z 14008KT 16/03 A2978 RMK A01 T01620030  RH  042%=      5-min Rain = 0
KGDS 200215Z 14008KT 16/03 A2978 RMK A01 T01620030  RH  042%=      5-min Rain = 0
KGDS 200220Z 14007KT 16/03 A2979 RMK A01 T01590029  RH  042%=      5-min Rain = 0
KGDS 200225Z 13007KT 15/03 A2979 RMK A01 T01540029  RH  044%=      5-min Rain = 0
KGDS 200230Z 13007KT 15/03 A2979 RMK A01 T01510029  RH  044%=      5-min Rain = 0
KGDS 200235Z 13007KT 15/03 A2979 RMK A01 T01520029  RH  044%=      5-min Rain = 0
KGDS 200240Z 14007KT 15/03 A2979 RMK A01 T01520030  RH  044%=      5-min Rain = 0
KGDS 200245Z 14007KT 15/03 A2979 RMK A01 T01490029  RH  045%=      5-min Rain = 0
KGDS 200250Z 13008KT 15/03 A2979 RMK A01 T01480030  RH  046%=      5-min Rain = 0
KGDS 200255Z 14009KT 15/03 A2979 RMK A01 T01530030  RH  045%=      5-min Rain = 0
KGDS 200300Z 14008KT 15/03 A2979 RMK A01 T01530030  RH  044%=      5-min Rain = 0
KGDS 200305Z 14007KT 15/03 A2979 RMK A01 T01500030  RH  045%=      5-min Rain = 0
KGDS 200310Z 14008KT 15/03 A2979 RMK A01 T01480031  RH  046%=      5-min Rain = 0
KGDS 200315Z 15008KT 15/03 A2979 RMK A01 T01480031  RH  046%=      5-min Rain = 0
KGDS 200320Z 15008KT 15/03 A2979 RMK A01 T01470031  RH  047%=      5-min Rain = 0
KGDS 200325Z 15008KT 15/03 A2979 RMK A01 T01460032  RH  047%=      5-min Rain = 0
KGDS 200330Z 15008KT 15/03 A2979 RMK A01 T01450032  RH  048%=      5-min Rain = 0
KGDS 200335Z 15009KT 15/03 A2979 RMK A01 T01460033  RH  048%=      5-min Rain = 0
KGDS 200340Z 15009KT 15/03 A2979 RMK A01 T01460034  RH  048%=      5-min Rain = 0
KGDS 200345Z 14009KT 15/04 A2979 RMK A01 T01470036  RH  048%=      5-min Rain = 0
KGDS 200350Z 14010KT 15/04 A2979 RMK A01 T01470036  RH  048%=      5-min Rain = 0
KGDS 200355Z 14010KT 15/04 A2979 RMK A01 T01470038  RH  049%=      5-min Rain = 0
KGDS 200400Z 15009KT 15/04 A2979 RMK A01 T01460039  RH  050%=      5-min Rain = 0
KGDS 200405Z 15009KT 15/04 A2979 RMK A01 T01460040  RH  050%=      5-min Rain = 0
KGDS 200410Z 15009KT 15/04 A298 RMK A01 T01460041  RH  050%=      5-min Rain = 0
KGDS 200415Z 15009KT 15/04 A2979 RMK A01 T01470043  RH  051%=      5-min Rain = 0
KGDS 200420Z 15010KT 15/04 A2979 RMK A01 T01490044  RH  050%=      5-min Rain = 0
KGDS 200425Z 15009KT 15/04 A2979 RMK A01 T01490044  RH  051%=      5-min Rain = 0
KGDS 200430Z 15009KT 15/05 A2979 RMK A01 T01470045  RH  051%=      5-min Rain = 0
KGDS 200435Z 15009KT 15/05 A2979 RMK A01 T01450045  RH  052%=      5-min Rain = 0
KGDS 200440Z 15009KT 15/05 A2979 RMK A01 T01460046  RH  052%=      5-min Rain = 0
KGDS 200445Z 16010KT 15/05 A2979 RMK A01 T01470047  RH  052%=      5-min Rain = 0
KGDS 200450Z 16011KT 15/05 A2979 RMK A01 T01500049  RH  052%=      5-min Rain = 0
KGDS 200455Z 16012KT 15/05 A2979 RMK A01 T01540050  RH  051%=      5-min Rain = 0
KGDS 200500Z 16012KT 16/05 A2979 RMK A01 T01550052  RH  051%=      5-min Rain = 0
KGDS 200505Z 16012KT 16/05 A2979 RMK A01 T01570053  RH  051%=      5-min Rain = 0
KGDS 200510Z 16012KT 16/06 A2979 RMK A01 T01570055  RH  052%=      5-min Rain = 0
KGDS 200515Z 16012KT 16/06 A2979 RMK A01 T01590057  RH  052%=      5-min Rain = 0
KGDS 200520Z 16012KT 16/06 A2978 RMK A01 T01630059  RH  051%=      5-min Rain = 0
KGDS 200525Z 16013KT 16/06 A2978 RMK A01 T01640060  RH  051%=      5-min Rain = 0
KGDS 200530Z 16012KT 16/06 A2978 RMK A01 T01640061  RH  052%=      5-min Rain = 0
KGDS 200535Z 16013KT 17/06 A2978 RMK A01 T01650062  RH  052%=      5-min Rain = 0
KGDS 200540Z 16013KT 17/06 A2978 RMK A01 T01660063  RH  052%=      5-min Rain = 0
KGDS 200545Z 16014KT 17/06 A2979 RMK A01 T01660063  RH  052%=      5-min Rain = 0
KGDS 200550Z 16014KT 17/06 A2979 RMK A01 T01660064  RH  052%=      5-min Rain = 0
KGDS 200555Z 17014KT 17/06 A2979 RMK A01 T01660064  RH  052%=      5-min Rain = 0

Page generated in 0.0096 seconds.